createdAt,value
2017-06-27T00:00:49.183Z,5.40
2017-06-27T00:03:16.742Z,5.10
2017-06-27T00:05:44.272Z,4.80
2017-06-27T00:08:12.600Z,5.70
2017-06-27T00:10:40.134Z,5.40
2017-06-27T00:13:07.695Z,5.60
2017-06-27T00:15:35.229Z,6.13
2017-06-27T00:18:03.549Z,5.83
2017-06-27T00:20:31.086Z,5.70
2017-06-27T00:22:58.639Z,6.03
2017-06-27T00:25:26.925Z,6.97
2017-06-27T00:27:54.470Z,6.30
2017-06-27T00:30:22.769Z,6.43
2017-06-27T00:32:50.296Z,6.47
2017-06-27T00:35:18.623Z,7.03
2017-06-27T00:37:46.161Z,6.20
2017-06-27T00:40:13.706Z,6.50
2017-06-27T00:42:41.235Z,6.37
2017-06-27T00:45:08.783Z,6.67
2017-06-27T00:47:36.307Z,6.60
2017-06-27T00:50:03.858Z,7.57
2017-06-27T00:52:31.387Z,6.83
2017-06-27T00:54:58.951Z,7.20
2017-06-27T00:57:27.247Z,7.37
2017-06-27T00:59:54.807Z,6.87
2017-06-27T01:02:22.342Z,7.13
2017-06-27T01:04:49.894Z,6.83
2017-06-27T01:07:17.429Z,6.87
2017-06-27T01:09:44.992Z,7.70
2017-06-27T01:12:12.518Z,7.50
2017-06-27T01:14:40.071Z,7.43
2017-06-27T01:17:07.599Z,7.97
2017-06-27T01:19:35.150Z,8.33
2017-06-27T01:22:02.687Z,8.13
2017-06-27T01:24:30.218Z,9.07
2017-06-27T01:26:57.770Z,7.90
2017-06-27T01:29:25.305Z,8.90
2017-06-27T01:31:53.634Z,9.70
2017-06-27T01:34:21.169Z,9.00
2017-06-27T01:36:48.726Z,7.93
2017-06-27T01:39:16.264Z,10.10
2017-06-27T01:41:44.586Z,9.73
2017-06-27T01:44:12.114Z,9.00
2017-06-27T01:46:39.671Z,8.80
2017-06-27T01:49:07.215Z,9.10
2017-06-27T01:51:35.543Z,9.73
2017-06-27T01:54:03.076Z,10.03
2017-06-27T01:56:30.631Z,8.60
2017-06-27T01:58:58.162Z,9.70
2017-06-27T02:01:25.722Z,10.20
2017-06-27T02:03:53.254Z,9.23
2017-06-27T02:06:20.804Z,9.20
2017-06-27T02:08:48.354Z,9.97
2017-06-27T02:11:15.914Z,9.80
2017-06-27T02:13:43.446Z,9.43
2017-06-27T02:16:11.010Z,9.10
2017-06-27T02:18:38.542Z,9.40
2017-06-27T02:21:06.852Z,10.37
2017-06-27T02:23:34.414Z,9.23
2017-06-27T02:26:01.938Z,9.17
2017-06-27T02:28:30.263Z,9.00
2017-06-27T02:30:57.795Z,8.37
2017-06-27T02:33:25.353Z,8.60
2017-06-27T02:35:52.882Z,9.43
2017-06-27T02:38:20.437Z,8.90
2017-06-27T02:40:47.980Z,9.57
2017-06-27T02:43:15.528Z,8.70
2017-06-27T02:45:43.067Z,8.63
2017-06-27T02:48:10.619Z,8.87
2017-06-27T02:50:38.155Z,9.70
2017-06-27T02:53:06.482Z,8.47
2017-06-27T02:55:34.017Z,8.60
2017-06-27T02:58:01.567Z,8.50
2017-06-27T03:00:29.103Z,9.10
2017-06-27T03:02:56.659Z,9.67
2017-06-27T03:05:24.190Z,9.67
2017-06-27T03:07:51.743Z,9.83
2017-06-27T03:10:19.274Z,9.80
2017-06-27T03:12:46.831Z,9.67
2017-06-27T03:15:14.370Z,8.73
2017-06-27T03:17:42.694Z,9.43
2017-06-27T03:20:10.248Z,9.77
2017-06-27T03:22:37.775Z,9.73
2017-06-27T03:25:06.093Z,10.30
2017-06-27T03:27:33.623Z,9.60
2017-06-27T03:30:01.184Z,10.40
2017-06-27T03:32:28.714Z,9.93
2017-06-27T03:34:56.279Z,10.20
2017-06-27T03:37:24.582Z,10.30
2017-06-27T03:39:52.144Z,10.10
2017-06-27T03:42:19.677Z,9.60
2017-06-27T03:44:48.002Z,10.87
2017-06-27T03:47:15.539Z,10.43
2017-06-27T03:49:43.095Z,9.37
2017-06-27T03:52:10.627Z,9.23
2017-06-27T03:54:38.178Z,9.90
2017-06-27T03:57:05.707Z,9.80
2017-06-27T03:59:33.262Z,9.87
2017-06-27T04:02:00.799Z,10.10
2017-06-27T04:04:28.350Z,9.40
2017-06-27T04:06:55.889Z,9.53
2017-06-27T04:09:24.194Z,10.20
2017-06-27T04:11:51.752Z,9.63
2017-06-27T04:14:19.292Z,9.13
2017-06-27T04:16:47.618Z,9.90
2017-06-27T04:19:15.146Z,9.60
2017-06-27T04:21:42.706Z,10.67
2017-06-27T04:24:10.243Z,10.77
2017-06-27T04:26:38.570Z,9.43
2017-06-27T04:29:06.107Z,10.00
2017-06-27T04:31:33.665Z,11.63
2017-06-27T04:34:01.193Z,9.93
2017-06-27T04:36:29.523Z,9.50
2017-06-27T04:38:57.051Z,9.80
2017-06-27T04:41:24.608Z,9.67
2017-06-27T04:43:52.902Z,8.77
2017-06-27T04:46:20.455Z,9.23
2017-06-27T04:48:47.990Z,10.03
2017-06-27T04:51:16.315Z,10.23
2017-06-27T04:53:43.843Z,9.70
2017-06-27T04:56:12.159Z,9.90
2017-06-27T04:58:39.687Z,10.90
2017-06-27T05:01:07.247Z,10.13
2017-06-27T05:03:34.810Z,11.90
2017-06-27T05:06:02.346Z,11.20
2017-06-27T05:08:30.682Z,10.50
2017-06-27T05:10:58.451Z,10.60
2017-06-27T05:13:26.008Z,10.97
2017-06-27T05:15:53.545Z,11.67
2017-06-27T05:18:21.110Z,11.30
2017-06-27T05:20:48.647Z,11.60
2017-06-27T05:23:16.198Z,12.80
2017-06-27T05:25:43.735Z,12.93
2017-06-27T05:28:11.300Z,11.80
2017-06-27T05:30:39.599Z,12.30
2017-06-27T05:33:07.171Z,12.70
2017-06-27T05:35:34.702Z,12.87
2017-06-27T05:38:03.026Z,12.90
2017-06-27T05:40:30.563Z,13.27
2017-06-27T05:42:58.131Z,14.17
2017-06-27T05:45:25.671Z,13.27
2017-06-27T05:47:53.230Z,13.07
2017-06-27T05:50:20.762Z,12.70
2017-06-27T05:52:48.338Z,12.70
2017-06-27T05:55:16.642Z,12.50
2017-06-27T05:57:44.170Z,12.43
2017-06-27T06:00:12.499Z,12.00
2017-06-27T06:02:40.045Z,13.03
2017-06-27T06:05:07.605Z,13.20
2017-06-27T06:07:35.141Z,14.73
2017-06-27T06:10:03.468Z,12.50
2017-06-27T06:12:31.006Z,11.77
2017-06-27T06:14:58.560Z,12.80
2017-06-27T06:17:26.091Z,13.73
2017-06-27T06:19:54.419Z,12.93
2017-06-27T06:22:21.956Z,11.30
2017-06-27T06:24:49.530Z,12.93
2017-06-27T06:27:17.063Z,11.13
2017-06-27T06:29:44.660Z,11.80
2017-06-27T06:32:12.182Z,11.63
2017-06-27T06:34:39.749Z,12.80
2017-06-27T06:37:07.286Z,11.43
2017-06-27T06:39:35.615Z,12.57
2017-06-27T06:42:03.150Z,12.67
2017-06-27T06:44:30.706Z,12.53
2017-06-27T06:46:58.239Z,12.07
2017-06-27T06:49:26.564Z,12.80
2017-06-27T06:51:54.105Z,12.17
2017-06-27T06:54:21.643Z,12.40
2017-06-27T06:56:49.966Z,11.20
2017-06-27T06:59:17.498Z,11.60
2017-06-27T07:01:45.059Z,11.50
2017-06-27T07:04:12.593Z,12.73
2017-06-27T07:06:40.931Z,13.30
2017-06-27T07:09:08.473Z,11.37
2017-06-27T07:11:36.032Z,12.33
2017-06-27T07:14:03.572Z,13.00
2017-06-27T07:16:31.137Z,12.40
2017-06-27T07:18:58.682Z,11.90
2017-06-27T07:21:26.269Z,13.00
2017-06-27T07:23:53.807Z,14.00
2017-06-27T07:26:21.367Z,15.00
2017-06-27T07:28:48.905Z,15.43
2017-06-27T07:31:17.234Z,15.13
2017-06-27T07:33:44.785Z,14.53
2017-06-27T07:36:12.353Z,15.33
2017-06-27T07:38:39.894Z,15.37
2017-06-27T07:41:07.451Z,17.27
2017-06-27T07:43:34.982Z,15.97
2017-06-27T07:46:03.319Z,14.80
2017-06-27T07:48:30.848Z,17.30
2017-06-27T07:50:58.390Z,15.63
2017-06-27T07:53:26.706Z,15.93
2017-06-27T07:55:54.247Z,15.87
2017-06-27T07:58:21.803Z,14.67
2017-06-27T08:00:49.335Z,17.37
2017-06-27T08:03:17.671Z,16.30
2017-06-27T08:05:45.212Z,15.63
2017-06-27T08:08:12.771Z,14.80
2017-06-27T08:10:40.318Z,15.97
2017-06-27T08:13:07.879Z,17.30
2017-06-27T08:15:35.420Z,16.40
2017-06-27T08:18:03.751Z,17.97
2017-06-27T08:20:31.296Z,16.60
2017-06-27T08:22:58.851Z,15.60
2017-06-27T08:25:26.384Z,16.50
2017-06-27T08:27:53.954Z,16.00
2017-06-27T08:30:21.488Z,16.93
2017-06-27T08:32:49.822Z,16.10
2017-06-27T08:35:17.370Z,16.30
2017-06-27T08:37:44.923Z,16.33
2017-06-27T08:40:12.457Z,17.23
2017-06-27T08:42:40.020Z,16.33
2017-06-27T08:45:07.583Z,16.00
2017-06-27T08:47:35.124Z,14.90
2017-06-27T08:50:03.464Z,15.70
2017-06-27T08:52:31.003Z,14.00
2017-06-27T08:54:58.570Z,14.97
2017-06-27T08:57:26.104Z,14.70
2017-06-27T08:59:53.667Z,14.33
2017-06-27T09:02:21.203Z,14.53
2017-06-27T09:04:49.523Z,14.23
2017-06-27T09:07:17.063Z,13.40
2017-06-27T09:09:44.620Z,12.80
2017-06-27T09:12:12.154Z,13.87
2017-06-27T09:14:40.482Z,15.23
2017-06-27T09:17:08.019Z,14.23
2017-06-27T09:19:35.583Z,15.07
2017-06-27T09:22:03.119Z,15.80
2017-06-27T09:24:31.441Z,14.60
2017-06-27T09:26:58.976Z,16.17
2017-06-27T09:29:26.535Z,13.67
2017-06-27T09:31:54.075Z,14.70
2017-06-27T09:34:22.402Z,15.13
2017-06-27T09:36:49.939Z,13.80
2017-06-27T09:39:17.470Z,13.03
2017-06-27T09:41:45.795Z,12.90
2017-06-27T09:44:13.335Z,13.47
2017-06-27T09:46:40.894Z,11.43
2017-06-27T09:49:08.431Z,13.10
2017-06-27T09:51:36.750Z,12.17
2017-06-27T09:54:04.290Z,11.70
2017-06-27T09:56:31.843Z,10.77
2017-06-27T09:58:59.381Z,11.00
2017-06-27T10:01:27.708Z,12.13
2017-06-27T10:03:55.233Z,11.50
2017-06-27T10:06:22.791Z,10.67
2017-06-27T10:08:50.328Z,11.27
2017-06-27T10:11:18.653Z,10.43
2017-06-27T10:13:46.187Z,11.30
2017-06-27T10:16:13.747Z,11.53
2017-06-27T10:18:41.284Z,11.53
2017-06-27T10:21:09.615Z,12.73
2017-06-27T10:23:37.147Z,10.90
2017-06-27T10:26:04.703Z,11.47
2017-06-27T10:28:32.234Z,10.50
2017-06-27T10:30:59.807Z,11.17
2017-06-27T10:33:28.106Z,10.77
2017-06-27T10:35:55.646Z,11.07
2017-06-27T10:38:23.978Z,11.70
2017-06-27T10:40:51.512Z,10.60
2017-06-27T10:43:19.065Z,10.20
2017-06-27T10:45:46.603Z,10.80
2017-06-27T10:48:14.927Z,9.40
2017-06-27T10:50:42.460Z,8.97
2017-06-27T10:53:10.018Z,10.00
2017-06-27T10:55:37.547Z,9.20
2017-06-27T10:58:05.106Z,9.07
2017-06-27T11:00:32.639Z,10.37
2017-06-27T11:03:00.192Z,9.70
2017-06-27T11:05:27.726Z,9.80
2017-06-27T11:07:55.282Z,8.67
2017-06-27T11:10:22.802Z,8.00
2017-06-27T11:12:50.351Z,8.80
2017-06-27T11:15:17.877Z,8.00
2017-06-27T11:17:45.437Z,8.10
2017-06-27T11:20:12.971Z,7.37
2017-06-27T11:22:40.539Z,8.50
2017-06-27T11:25:08.067Z,8.20
2017-06-27T11:27:36.391Z,7.07
2017-06-27T11:30:03.923Z,7.83
2017-06-27T11:32:31.450Z,8.30
2017-06-27T11:34:59.009Z,8.00
2017-06-27T11:37:26.540Z,7.57
2017-06-27T11:39:54.095Z,7.50
2017-06-27T11:42:21.637Z,7.27
2017-06-27T11:44:49.191Z,7.80
2017-06-27T11:47:16.714Z,7.17
2017-06-27T11:49:44.283Z,7.60
2017-06-27T11:52:12.585Z,8.00
2017-06-27T11:54:40.144Z,8.47
2017-06-27T11:57:07.667Z,7.63
2017-06-27T11:59:35.215Z,6.87
2017-06-27T12:02:09.670Z,7.10
2017-06-27T12:04:37.990Z,7.77
2017-06-27T12:07:20.400Z,7.07
2017-06-27T12:09:47.955Z,7.53
2017-06-27T12:12:15.486Z,7.20
2017-06-27T12:14:43.039Z,8.00
2017-06-27T12:17:10.575Z,9.20
2017-06-27T12:19:38.896Z,7.80
2017-06-27T12:22:06.430Z,7.70
2017-06-27T12:24:33.978Z,8.40
2017-06-27T12:27:02.279Z,7.27
2017-06-27T12:29:29.843Z,8.13
2017-06-27T12:31:57.378Z,8.17
2017-06-27T12:34:25.678Z,8.57
2017-06-27T12:36:53.234Z,9.20
2017-06-27T12:39:20.764Z,8.47
2017-06-27T12:41:48.331Z,9.70
2017-06-27T12:44:16.631Z,9.23
2017-06-27T12:46:44.196Z,8.87
2017-06-27T12:49:11.719Z,9.43
2017-06-27T12:51:40.045Z,9.57
2017-06-27T12:54:07.575Z,9.67
2017-06-27T12:56:35.906Z,10.03
2017-06-27T12:59:03.440Z,10.17
2017-06-27T13:01:31.007Z,10.57
2017-06-27T13:03:58.543Z,8.93
2017-06-27T13:06:26.108Z,9.00
2017-06-27T13:08:53.643Z,8.37
2017-06-27T13:11:21.977Z,10.20
2017-06-27T13:13:49.510Z,8.77
2017-06-27T13:16:17.067Z,8.83
2017-06-27T13:18:44.600Z,8.90
2017-06-27T13:21:12.927Z,9.27
2017-06-27T13:23:40.471Z,9.80
2017-06-27T13:26:08.051Z,10.20
2017-06-27T13:28:35.586Z,9.30
2017-06-27T13:31:03.118Z,9.47
2017-06-27T13:33:30.680Z,10.90
2017-06-27T13:35:58.979Z,10.70
2017-06-27T13:38:26.534Z,10.00
2017-06-27T13:40:54.072Z,10.03
2017-06-27T13:43:22.405Z,10.27
2017-06-27T13:45:49.942Z,11.70
2017-06-27T13:48:17.500Z,11.77
2017-06-27T13:50:45.035Z,10.30
2017-06-27T13:53:12.602Z,11.43
2017-06-27T13:55:40.140Z,10.00
2017-06-27T13:58:08.472Z,9.50
2017-06-27T14:00:36.050Z,9.77
2017-06-27T14:03:03.600Z,8.67
2017-06-27T14:05:31.131Z,8.67
2017-06-27T14:07:58.686Z,9.77
2017-06-27T14:10:26.221Z,8.47
2017-06-27T14:12:54.542Z,9.27
2017-06-27T14:15:22.074Z,8.57
2017-06-27T14:17:49.634Z,8.90
2017-06-27T14:20:17.163Z,7.37
2017-06-27T14:22:44.732Z,7.23
2017-06-27T14:25:13.039Z,8.27
2017-06-27T14:27:40.581Z,8.30
2017-06-27T14:30:08.895Z,8.93
2017-06-27T14:32:36.428Z,9.83
2017-06-27T14:35:03.988Z,9.03
2017-06-27T14:37:31.515Z,8.77
2017-06-27T14:39:59.074Z,9.10
2017-06-27T14:42:26.606Z,8.00
2017-06-27T14:44:54.162Z,8.30
2017-06-27T14:47:21.683Z,8.20
2017-06-27T14:49:49.244Z,8.60
2017-06-27T14:52:16.762Z,8.43
2017-06-27T14:54:44.316Z,7.60
2017-06-27T14:57:11.845Z,7.40
2017-06-27T14:59:39.393Z,6.70
2017-06-27T15:02:06.932Z,6.50
2017-06-27T15:04:34.497Z,5.93
2017-06-27T15:07:03.961Z,5.70
2017-06-27T15:09:31.514Z,6.50
2017-06-27T15:11:59.050Z,6.03
2017-06-27T15:14:26.606Z,6.40
2017-06-27T15:16:54.137Z,6.83
2017-06-27T15:19:21.702Z,6.40
2017-06-27T15:21:49.236Z,6.43
2017-06-27T15:24:17.523Z,6.33
2017-06-27T15:26:45.856Z,6.50
2017-06-27T15:29:13.395Z,5.97
2017-06-27T15:31:40.947Z,7.60
2017-06-27T15:34:08.471Z,6.10
2017-06-27T15:36:36.786Z,6.67
2017-06-27T15:39:04.322Z,6.60
2017-06-27T15:41:32.638Z,6.43
2017-06-27T15:44:00.159Z,6.23
2017-06-27T15:46:28.470Z,6.17
2017-06-27T15:48:55.998Z,6.77
2017-06-27T15:51:23.551Z,7.17
2017-06-27T15:53:51.843Z,6.77
2017-06-27T15:56:19.398Z,6.80
2017-06-27T15:58:46.930Z,7.40
2017-06-27T16:01:14.485Z,6.83
2017-06-27T16:03:42.018Z,6.10
2017-06-27T16:06:09.569Z,7.73
2017-06-27T16:08:37.110Z,7.20
2017-06-27T16:11:04.654Z,6.50
2017-06-27T16:13:32.187Z,7.00
2017-06-27T16:16:00.522Z,6.80
2017-06-27T16:18:28.051Z,6.70
2017-06-27T16:20:55.583Z,6.90
2017-06-27T16:23:23.150Z,6.10
2017-06-27T16:25:51.450Z,6.70
2017-06-27T16:28:19.002Z,6.50
2017-06-27T16:30:47.300Z,6.70
2017-06-27T16:33:14.863Z,6.90
2017-06-27T16:35:42.393Z,5.97
2017-06-27T16:38:10.714Z,6.50
2017-06-27T16:40:38.239Z,6.53
2017-06-27T16:43:05.794Z,7.03
2017-06-27T16:45:33.336Z,7.23
2017-06-27T16:48:01.662Z,7.90
2017-06-27T16:50:29.412Z,6.67
2017-06-27T16:52:57.051Z,7.30
2017-06-27T16:55:25.347Z,6.83
2017-06-27T16:57:52.899Z,5.80
2017-06-27T17:00:20.430Z,6.43
2017-06-27T17:02:48.658Z,5.73
2017-06-27T17:05:17.127Z,5.70
2017-06-27T17:07:44.687Z,5.93
2017-06-27T17:10:12.221Z,6.50
2017-06-27T17:12:41.243Z,6.60
2017-06-27T17:15:08.902Z,5.77
2017-06-27T17:17:36.428Z,6.40
2017-06-27T17:20:05.743Z,6.07
2017-06-27T17:22:34.036Z,6.57
2017-06-27T17:25:01.591Z,6.63
2017-06-27T17:27:29.124Z,6.93
2017-06-27T17:29:56.690Z,7.40
2017-06-27T17:32:24.990Z,6.03
2017-06-27T17:34:52.551Z,6.10
2017-06-27T17:37:20.085Z,6.40
2017-06-27T17:39:48.406Z,5.70
2017-06-27T17:42:15.951Z,7.33
2017-06-27T17:44:43.498Z,6.73
2017-06-27T17:47:11.027Z,6.97
2017-06-27T17:49:38.574Z,6.70
2017-06-27T17:52:06.099Z,6.00
2017-06-27T17:54:33.654Z,6.37
2017-06-27T17:57:01.178Z,6.40
2017-06-27T17:59:29.495Z,6.10
2017-06-27T18:01:57.018Z,5.90
2017-06-27T18:04:25.334Z,5.33
2017-06-27T18:06:52.859Z,5.73
2017-06-27T18:09:21.149Z,5.30
2017-06-27T18:11:48.695Z,6.30
2017-06-27T18:14:16.990Z,5.33
2017-06-27T18:16:44.546Z,5.97
2017-06-27T18:19:12.078Z,5.87
2017-06-27T18:21:40.401Z,6.07
2017-06-27T18:24:07.925Z,5.07
2017-06-27T18:26:36.233Z,5.60
2017-06-27T18:29:03.755Z,6.03
2017-06-27T18:31:32.071Z,5.70
2017-06-27T18:33:59.595Z,5.90
2017-06-27T18:36:27.905Z,5.73
2017-06-27T18:38:55.431Z,6.27
2017-06-27T18:41:23.751Z,6.17
2017-06-27T18:43:51.275Z,5.80
2017-06-27T18:46:19.588Z,6.37
2017-06-27T18:48:47.115Z,6.87
2017-06-27T18:51:14.667Z,5.90
2017-06-27T18:53:42.962Z,6.60
2017-06-27T18:56:10.511Z,6.40
2017-06-27T18:58:38.794Z,5.80
2017-06-27T19:01:06.348Z,7.00
2017-06-27T19:03:34.639Z,6.57
2017-06-27T19:06:02.201Z,7.00
2017-06-27T19:08:29.728Z,6.83
2017-06-27T19:10:58.027Z,7.43
2017-06-27T19:13:25.583Z,6.40
2017-06-27T19:15:53.118Z,7.60
2017-06-27T19:18:20.685Z,7.43
2017-06-27T19:20:48.995Z,7.37
2017-06-27T19:23:16.561Z,7.00
2017-06-27T19:25:44.091Z,7.33
2017-06-27T19:28:12.411Z,7.53
2017-06-27T19:30:39.946Z,7.80
2017-06-27T19:33:07.495Z,8.57
2017-06-27T19:35:35.027Z,9.43
2017-06-27T19:38:02.593Z,8.73
2017-06-27T19:40:30.118Z,7.57
2017-06-27T19:42:57.978Z,9.47
2017-06-27T19:45:25.506Z,8.73
2017-06-27T19:47:53.074Z,7.03
2017-06-27T19:50:20.598Z,9.67
2017-06-27T19:52:48.151Z,7.90
2017-06-27T19:55:15.683Z,8.43
2017-06-27T19:57:43.243Z,9.70
2017-06-27T20:00:10.766Z,8.13
2017-06-27T20:02:38.334Z,8.53
2017-06-27T20:05:05.867Z,9.83
2017-06-27T20:07:34.162Z,9.90
2017-06-27T20:10:01.712Z,7.70
2017-06-27T20:12:29.254Z,10.57
2017-06-27T20:14:57.574Z,9.23
2017-06-27T20:17:25.103Z,9.70
2017-06-27T20:19:52.650Z,9.90
2017-06-27T20:22:20.959Z,9.10
2017-06-27T20:24:48.514Z,8.23
2017-06-27T20:27:16.046Z,9.63
2017-06-27T20:29:44.369Z,8.00
2017-06-27T20:32:11.899Z,8.80
2017-06-27T20:34:39.459Z,8.73
2017-06-27T20:37:07.746Z,8.10
2017-06-27T20:39:35.299Z,8.60
2017-06-27T20:42:02.826Z,9.27
2017-06-27T20:44:30.386Z,8.50
2017-06-27T20:46:57.906Z,9.60
2017-06-27T20:49:25.461Z,11.30
2017-06-27T20:51:53.000Z,9.60
2017-06-27T20:54:20.569Z,9.67
2017-06-27T20:56:48.103Z,11.73
2017-06-27T20:59:15.663Z,8.73
2017-06-27T21:01:43.999Z,12.00
2017-06-27T21:04:11.532Z,11.40
2017-06-27T21:06:39.083Z,9.00
2017-06-27T21:09:06.616Z,8.90
2017-06-27T21:11:34.947Z,10.50
2017-06-27T21:14:02.476Z,8.10
2017-06-27T21:16:30.027Z,8.10
2017-06-27T21:18:57.555Z,7.20
2017-06-27T21:21:25.115Z,6.87
2017-06-27T21:23:52.660Z,6.90
2017-06-27T21:26:20.215Z,6.37
2017-06-27T21:28:47.746Z,5.67
2017-06-27T21:31:15.296Z,5.90
2017-06-27T21:33:42.823Z,5.70
2017-06-27T21:36:10.383Z,4.90
2017-06-27T21:38:37.909Z,6.70
2017-06-27T21:41:05.502Z,5.57
2017-06-27T21:43:33.032Z,5.13
2017-06-27T21:46:01.171Z,5.67
2017-06-27T21:48:28.695Z,6.53
2017-06-27T21:50:56.280Z,4.93
2017-06-27T21:53:23.817Z,5.67
2017-06-27T21:55:51.339Z,4.70
2017-06-27T21:58:18.892Z,4.97
2017-06-27T22:00:46.423Z,6.03
2017-06-27T22:03:13.979Z,4.97
2017-06-27T22:05:41.515Z,5.20
2017-06-27T22:08:09.830Z,6.43
2017-06-27T22:10:37.356Z,4.50
2017-06-27T22:13:05.673Z,4.77
2017-06-27T22:15:33.200Z,5.83
2017-06-27T22:18:01.518Z,4.70
2017-06-27T22:20:29.052Z,4.67
2017-06-27T22:22:56.605Z,5.30
2017-06-27T22:25:24.136Z,4.10
2017-06-27T22:27:51.696Z,4.87
2017-06-27T22:51:10.695Z,7.80
2017-06-27T22:53:38.258Z,7.23
2017-06-27T22:56:05.792Z,6.57
2017-06-27T22:58:33.348Z,6.50
2017-06-27T23:01:00.878Z,5.83
2017-06-27T23:03:28.431Z,5.50
2017-06-27T23:05:55.963Z,5.70
2017-06-27T23:08:24.302Z,4.40
2017-06-27T23:10:51.844Z,5.40
2017-06-27T23:13:19.406Z,4.30
2017-06-27T23:15:46.937Z,4.80
2017-06-27T23:18:14.475Z,4.43
2017-06-27T23:20:42.809Z,5.20
2017-06-27T23:23:10.339Z,6.00
2017-06-27T23:25:37.886Z,6.43
2017-06-27T23:28:06.174Z,5.33
2017-06-27T23:30:33.726Z,4.80
2017-06-27T23:33:02.023Z,4.77
2017-06-27T23:35:29.571Z,4.47
2017-06-27T23:37:57.103Z,3.80
2017-06-27T23:40:24.668Z,4.10
2017-06-27T23:42:52.959Z,3.73
2017-06-27T23:45:21.277Z,3.53
2017-06-27T23:47:48.812Z,3.60
2017-06-27T23:50:16.366Z,3.03
2017-06-27T23:52:43.898Z,3.30
2017-06-27T23:55:12.217Z,3.33
2017-06-27T23:57:39.740Z,3.30
